Time;durP1;ratioP1;P1;durP2;ratioP2;P2;SDS_P1;SDS_P2;PMS_P1;PMS_P2;Temp;Humidity;BMP_temperature;BMP_pressure;BME280_temperature;BME280_humidity;BME280_pressure;Samples;Min_cycle;Max_cycle;Signal;HPM_P1;HPM_P2
2022/08/16 00:00:07;;;;;;;;;;;;;;;19.33;64.06;100233.28;5042262;28;21154;-76
2022/08/16 00:02:33;;;;;;;;;;;;;;;19.33;64.48;100235.06;5044399;28;19925;-77
2022/08/16 00:04:58;;;;;;;;;;;;;;;19.32;64.28;100236.00;5042195;28;19928;-77
2022/08/16 00:07:24;;;;;;;;;;;;;;;19.32;64.08;100236.00;5054438;28;19931;-77
2022/08/16 00:09:49;;;;;;;;;;;;;;;19.33;64.00;100249.09;5042931;28;20512;-77
2022/08/16 00:12:14;;;;;;;;;;;;;;;19.34;64.12;100242.03;5053131;28;19917;-77
2022/08/16 00:14:40;;;;;;;;;;;;;;;19.31;64.01;100237.81;5031928;28;19917;-77
2022/08/16 00:17:05;;;;;;;;;;;;;;;19.31;63.77;100244.88;5047087;28;20336;-77
2022/08/16 00:19:31;;;;;;;;;;;;;;;19.29;64.00;100244.97;5038323;28;20317;-77
2022/08/16 00:21:57;;;;;;;;;;;;;;;19.31;63.92;100252.78;5055110;28;20019;-77
2022/08/16 00:24:25;;;;;;;;;;;;;;;19.31;64.38;100258.03;5048559;28;19917;-77
2022/08/16 00:26:50;;;;;;;;;;;;;;;19.31;64.09;100260.69;5048652;28;19928;-77
2022/08/16 00:29:16;;;;;;;;;;;;;;;19.33;63.85;100254.38;5041442;28;19924;-77
2022/08/16 00:31:42;;;;;;;;;;;;;;;19.33;63.38;100249.09;5027691;28;20309;-77
2022/08/16 00:34:07;;;;;;;;;;;;;;;19.33;63.66;100251.72;5042796;28;19925;-77
2022/08/16 00:36:33;;;;;;;;;;;;;;;19.33;63.59;100249.09;5044569;28;20409;-77
2022/08/16 00:38:58;;;;;;;;;;;;;;;19.35;63.77;100259.50;5047664;28;19920;-77
2022/08/16 00:41:25;;;;;;;;;;;;;;;19.34;63.75;100255.22;5043454;28;19978;-77
2022/08/16 00:43:51;;;;;;;;;;;;;;;19.36;64.19;100256.78;5045531;28;19917;-76
2022/08/16 00:46:16;;;;;;;;;;;;;;;19.39;63.96;100253.97;5022528;28;20344;-77
2022/08/16 00:48:43;;;;;;;;;;;;;;;19.42;64.00;100252.91;5044641;28;20343;-76
2022/08/16 00:51:08;;;;;;;;;;;;;;;19.43;63.43;100254.63;5053820;28;19928;-77
2022/08/16 00:53:34;;;;;;;;;;;;;;;19.43;63.78;100257.25;5044442;28;19925;-77
2022/08/16 00:56:02;;;;;;;;;;;;;;;19.46;63.46;100257.03;5035906;28;19975;-77
2022/08/16 00:58:29;;;;;;;;;;;;;;;19.46;63.60;100257.88;5039943;28;19921;-77
2022/08/16 01:00:55;;;;;;;;;;;;;;;19.46;63.53;100260.50;5040100;28;19920;-77
2022/08/16 01:03:22;;;;;;;;;;;;;;;19.46;63.76;100259.69;5054542;28;19913;-77
2022/08/16 01:05:47;;;;;;;;;;;;;;;19.46;63.60;100262.31;5042986;28;20027;-76
2022/08/16 01:08:15;;;;;;;;;;;;;;;19.43;63.77;100258.06;5036580;28;20016;-77
2022/08/16 01:10:40;;;;;;;;;;;;;;;19.45;63.44;100261.47;5047007;28;19927;-77
2022/08/16 01:13:11;;;;;;;;;;;;;;;19.47;63.54;100256.06;5044082;28;20297;-77
2022/08/16 01:15:37;;;;;;;;;;;;;;;19.45;63.48;100260.63;5038554;28;19970;-77
2022/08/16 01:18:05;;;;;;;;;;;;;;;19.48;63.68;100257.78;5026911;28;20441;-77
2022/08/16 01:20:33;;;;;;;;;;;;;;;19.46;63.66;100251.78;5040912;28;19920;-77
2022/08/16 01:23:03;;;;;;;;;;;;;;;19.50;63.30;100242.69;5034603;28;19925;-77
2022/08/16 01:25:41;;;;;;;;;;;;;;;19.49;63.12;100241.84;5052134;28;20302;-77
2022/08/16 01:28:11;;;;;;;;;;;;;;;19.48;63.71;100252.50;5036791;28;20023;-76
2022/08/16 01:30:39;;;;;;;;;;;;;;;19.46;63.61;100249.97;5052065;28;19951;-77
2022/08/16 01:33:06;;;;;;;;;;;;;;;19.45;63.46;100245.66;5046241;28;19944;-77
2022/08/16 01:35:37;;;;;;;;;;;;;;;19.44;63.65;100248.38;5039777;28;19921;-77
2022/08/16 01:38:18;;;;;;;;;;;;;;;19.39;63.75;100251.31;5040958;28;20431;-77
2022/08/16 01:40:43;;;;;;;;;;;;;;;19.41;63.73;100249.44;5041666;28;19921;-77
2022/08/16 01:43:08;;;;;;;;;;;;;;;19.41;63.44;100246.78;5039683;28;20005;-76
2022/08/16 01:45:34;;;;;;;;;;;;;;;19.37;63.50;100255.88;5022293;28;19929;-76
2022/08/16 01:47:59;;;;;;;;;;;;;;;19.33;63.63;100253.50;5043309;28;19924;-76
2022/08/16 01:50:24;;;;;;;;;;;;;;;19.29;63.77;100258.13;5041753;28;20004;-77
2022/08/16 01:52:50;;;;;;;;;;;;;;;19.31;63.69;100260.69;5046661;28;19925;-77
2022/08/16 01:55:16;;;;;;;;;;;;;;;19.29;63.69;100252.00;5048742;28;19964;-76
2022/08/16 01:57:42;;;;;;;;;;;;;;;19.24;63.82;100247.88;5044254;28;20308;-76
2022/08/16 02:00:11;;;;;;;;;;;;;;;19.27;63.49;100260.00;5040157;28;20019;-76
2022/08/16 02:02:37;;;;;;;;;;;;;;;19.25;63.67;100257.44;5038883;28;19936;-77
2022/08/16 02:05:03;;;;;;;;;;;;;;;19.23;63.94;100250.59;5037116;28;19980;-77
2022/08/16 02:07:28;;;;;;;;;;;;;;;19.22;63.91;100252.38;5039055;28;20363;-77
2022/08/16 02:09:53;;;;;;;;;;;;;;;19.22;63.46;100249.75;5048228;28;20015;-77
2022/08/16 02:12:19;;;;;;;;;;;;;;;19.18;63.64;100242.16;5043818;28;19921;-77
2022/08/16 02:14:44;;;;;;;;;;;;;;;19.15;63.67;100253.72;5041686;28;20333;-77
2022/08/16 02:17:10;;;;;;;;;;;;;;;19.10;63.43;100247.94;5039090;28;20513;-77
2022/08/16 02:19:38;;;;;;;;;;;;;;;19.11;63.44;100243.47;5052242;28;19920;-77
2022/08/16 02:22:04;;;;;;;;;;;;;;;19.08;63.65;100249.78;5046248;28;19921;-77
2022/08/16 02:24:29;;;;;;;;;;;;;;;19.06;63.75;100248.22;5040878;28;20366;-76
2022/08/16 02:26:55;;;;;;;;;;;;;;;19.05;63.69;100241.25;5049964;28;20403;-76
2022/08/16 02:29:21;;;;;;;;;;;;;;;19.04;63.86;100244.84;5049215;28;20058;-77
2022/08/16 02:31:47;;;;;;;;;;;;;;;19.03;63.97;100245.78;5053533;28;19920;-76
2022/08/16 02:34:13;;;;;;;;;;;;;;;19.03;63.64;100249.25;5029549;28;19971;-77
2022/08/16 02:36:39;;;;;;;;;;;;;;;18.99;63.68;100246.91;5045797;28;19960;-77
2022/08/16 02:39:06;;;;;;;;;;;;;;;18.90;63.54;100244.84;5033735;28;19913;-76
2022/08/16 02:41:32;;;;;;;;;;;;;;;18.91;63.34;100239.50;5039833;28;20052;-76
2022/08/16 02:43:58;;;;;;;;;;;;;;;18.94;63.59;100241.09;5033721;28;20003;-76
2022/08/16 02:46:24;;;;;;;;;;;;;;;18.92;63.49;100237.72;5042187;28;19932;-77
2022/08/16 02:48:49;;;;;;;;;;;;;;;18.90;63.62;100239.59;5023818;28;19929;-77
2022/08/16 02:51:15;;;;;;;;;;;;;;;18.89;63.55;100243.19;5010649;28;20052;-76
2022/08/16 02:53:41;;;;;;;;;;;;;;;18.83;63.67;100244.41;5035230;28;19928;-76
2022/08/16 02:56:08;;;;;;;;;;;;;;;18.87;63.33;100252.97;5049324;28;19921;-77
2022/08/16 02:58:33;;;;;;;;;;;;;;;18.85;63.20;100245.16;5043800;28;19921;-77
2022/08/16 03:00:58;;;;;;;;;;;;;;;18.83;63.39;100248.84;5038992;28;19928;-77
2022/08/16 03:03:25;;;;;;;;;;;;;;;18.87;63.51;100245.06;5038955;28;19951;-77
2022/08/16 03:05:50;;;;;;;;;;;;;;;18.83;63.54;100238.31;5018628;28;20024;-77
2022/08/16 03:08:16;;;;;;;;;;;;;;;18.83;63.55;100240.94;5041082;28;20007;-77
2022/08/16 03:10:42;;;;;;;;;;;;;;;18.81;63.77;100245.47;5039760;28;19928;-77
2022/08/16 03:13:07;;;;;;;;;;;;;;;18.82;63.62;100247.13;5036479;28;19917;-77
2022/08/16 03:15:32;;;;;;;;;;;;;;;18.79;63.56;100244.69;5040920;28;19921;-76
2022/08/16 03:17:58;;;;;;;;;;;;;;;18.77;63.55;100243.94;5029347;28;19938;-77
2022/08/16 03:20:23;;;;;;;;;;;;;;;18.77;63.50;100239.53;5039486;28;19936;-76
2022/08/16 03:22:48;;;;;;;;;;;;;;;18.79;63.58;100242.06;5020653;28;19921;-76
2022/08/16 03:25:14;;;;;;;;;;;;;;;18.78;63.72;100245.66;5038770;28;19986;-77
2022/08/16 03:27:40;;;;;;;;;;;;;;;18.71;63.95;100250.44;5039936;28;19921;-77
2022/08/16 03:30:16;;;;;;;;;;;;;;;18.75;63.85;100254.56;5042800;28;19932;-77
2022/08/16 03:32:42;;;;;;;;;;;;;;;18.75;63.54;100248.47;5037616;28;20389;-77
2022/08/16 03:35:07;;;;;;;;;;;;;;;18.73;63.92;100247.72;5036189;28;19924;-76
2022/08/16 03:37:33;;;;;;;;;;;;;;;18.64;64.02;100255.25;5022121;28;19928;-77
2022/08/16 03:39:58;;;;;;;;;;;;;;;18.60;63.88;100250.28;5038967;28;19928;-76
2022/08/16 03:42:24;;;;;;;;;;;;;;;18.61;64.12;100255.44;5043191;28;19960;-76
2022/08/16 03:44:49;;;;;;;;;;;;;;;18.62;64.17;100257.13;5046256;28;19940;-76
2022/08/16 03:47:15;;;;;;;;;;;;;;;18.58;64.36;100255.63;5021149;28;19971;-77
2022/08/16 03:49:41;;;;;;;;;;;;;;;18.63;64.17;100256.16;5046995;28;19979;-76
2022/08/16 03:52:06;;;;;;;;;;;;;;;18.61;64.15;100254.59;5044605;28;19952;-77
2022/08/16 03:54:32;;;;;;;;;;;;;;;18.60;64.24;100252.91;5036830;28;19924;-77
2022/08/16 03:56:57;;;;;;;;;;;;;;;18.51;64.18;100243.78;5051816;28;19948;-77
2022/08/16 03:59:22;;;;;;;;;;;;;;;18.54;64.12;100245.41;5038635;28;20003;-77
2022/08/16 04:01:47;;;;;;;;;;;;;;;18.51;64.46;100249.03;5040410;28;19967;-77
2022/08/16 04:04:13;;;;;;;;;;;;;;;18.50;64.52;100260.53;5033512;28;19961;-77
2022/08/16 04:06:38;;;;;;;;;;;;;;;18.49;64.48;100268.50;5041983;28;20293;-77
2022/08/16 04:09:03;;;;;;;;;;;;;;;18.45;64.54;100266.97;5042474;28;19955;-77
2022/08/16 04:11:29;;;;;;;;;;;;;;;18.42;64.97;100275.06;5043773;28;19921;-77
2022/08/16 04:13:54;;;;;;;;;;;;;;;18.44;64.48;100266.13;5047997;28;19924;-76
2022/08/16 04:16:19;;;;;;;;;;;;;;;18.44;64.72;100260.88;5036321;28;20338;-76
2022/08/16 04:18:46;;;;;;;;;;;;;;;18.39;64.88;100264.72;5039033;28;19917;-77
2022/08/16 04:21:11;;;;;;;;;;;;;;;18.43;64.51;100268.84;5043384;28;19917;-76
2022/08/16 04:23:37;;;;;;;;;;;;;;;18.39;64.75;100270.78;5022576;28;19987;-77
2022/08/16 04:26:03;;;;;;;;;;;;;;;18.40;64.66;100277.75;5035878;28;19921;-77
2022/08/16 04:28:29;;;;;;;;;;;;;;;18.45;64.70;100282.75;5039255;28;19933;-76
2022/08/16 04:30:54;;;;;;;;;;;;;;;18.44;64.76;100281.91;5023990;28;19982;-76
2022/08/16 04:33:19;;;;;;;;;;;;;;;18.39;64.85;100275.25;5045386;28;19917;-76
2022/08/16 04:35:45;;;;;;;;;;;;;;;18.39;65.03;100280.50;5021875;28;19917;-77
2022/08/16 04:38:10;;;;;;;;;;;;;;;18.38;65.05;100276.16;5038735;28;19964;-76
2022/08/16 04:40:35;;;;;;;;;;;;;;;18.41;65.00;100273.34;5042668;28;19918;-76
2022/08/16 04:43:01;;;;;;;;;;;;;;;18.41;65.28;100283.88;5043255;28;19928;-76
2022/08/16 04:45:26;;;;;;;;;;;;;;;18.42;65.38;100283.75;5041768;28;19917;-76
2022/08/16 04:47:52;;;;;;;;;;;;;;;18.42;65.46;100283.75;5040619;28;20006;-76
2022/08/16 04:50:20;;;;;;;;;;;;;;;18.46;65.22;100284.47;5031301;28;20015;-77
2022/08/16 04:52:46;;;;;;;;;;;;;;;18.43;65.24;100295.97;5045100;28;20008;-76
2022/08/16 04:55:13;;;;;;;;;;;;;;;18.50;65.18;100294.72;5043885;28;20011;-76
2022/08/16 04:57:39;;;;;;;;;;;;;;;18.48;65.45;100298.38;5034758;28;19917;-76
2022/08/16 05:00:10;;;;;;;;;;;;;;;18.49;65.24;100289.53;5039998;28;19916;-76
2022/08/16 05:02:36;;;;;;;;;;;;;;;18.46;65.37;100293.19;5035997;28;19947;-76
2022/08/16 05:05:01;;;;;;;;;;;;;;;18.41;65.64;100304.91;5040477;28;19923;-76
2022/08/16 05:07:27;;;;;;;;;;;;;;;18.51;65.20;100306.09;5041843;28;19932;-77
2022/08/16 05:09:52;;;;;;;;;;;;;;;18.53;65.50;100312.09;5038703;28;20344;-77
2022/08/16 05:12:17;;;;;;;;;;;;;;;18.51;65.85;100314.81;5036464;28;20086;-76
2022/08/16 05:14:42;;;;;;;;;;;;;;;18.51;66.01;100312.16;5037659;28;20505;-76
2022/08/16 05:17:08;;;;;;;;;;;;;;;18.53;65.82;100306.81;5028344;28;20600;-77
2022/08/16 05:19:33;;;;;;;;;;;;;;;18.54;65.73;100306.72;5021056;28;19921;-75
2022/08/16 05:21:59;;;;;;;;;;;;;;;18.55;66.08;100303.16;5036134;28;20431;-76
2022/08/16 05:24:24;;;;;;;;;;;;;;;18.60;66.18;100305.53;5041554;28;20292;-76
2022/08/16 05:26:49;;;;;;;;;;;;;;;18.61;66.31;100307.19;5037657;28;19921;-76
2022/08/16 05:29:15;;;;;;;;;;;;;;;18.60;66.68;100308.16;5035546;28;19929;-76
2022/08/16 05:31:40;;;;;;;;;;;;;;;18.60;66.83;100313.41;5043955;28;19920;-76
2022/08/16 05:34:05;;;;;;;;;;;;;;;18.60;66.87;100313.41;5037126;28;20003;-77
2022/08/16 05:36:31;;;;;;;;;;;;;;;18.62;67.23;100316.78;5043879;28;19920;-77
2022/08/16 05:38:57;;;;;;;;;;;;;;;18.66;67.50;100319.13;5038694;28;19986;-77
2022/08/16 05:41:22;;;;;;;;;;;;;;;18.73;67.35;100310.84;5039177;28;20369;-76
2022/08/16 05:43:47;;;;;;;;;;;;;;;18.76;67.15;100315.94;5041744;28;19967;-77
2022/08/16 05:46:16;;;;;;;;;;;;;;;18.78;66.97;100320.16;5044713;28;20010;-77
2022/08/16 05:48:42;;;;;;;;;;;;;;;18.81;66.89;100319.16;5038904;28;19917;-77
2022/08/16 05:51:07;;;;;;;;;;;;;;;18.81;67.50;100329.66;5045770;28;19917;-77
2022/08/16 05:53:32;;;;;;;;;;;;;;;18.84;67.16;100325.03;5041550;28;19921;-76
2022/08/16 05:55:58;;;;;;;;;;;;;;;18.88;67.15;100320.44;5050983;28;19921;-76
2022/08/16 05:58:23;;;;;;;;;;;;;;;18.88;67.61;100320.44;5015223;28;19925;-76
2022/08/16 06:00:48;;;;;;;;;;;;;;;18.87;67.60;100322.22;5036983;28;20369;-76
2022/08/16 06:03:13;;;;;;;;;;;;;;;18.92;67.08;100322.78;5039284;28;19960;-76
2022/08/16 06:05:39;;;;;;;;;;;;;;;18.92;66.93;100321.94;5048083;28;20414;-77
2022/08/16 06:08:04;;;;;;;;;;;;;;;18.96;67.03;100323.44;5041337;28;19920;-77
2022/08/16 06:10:30;;;;;;;;;;;;;;;18.98;66.57;100313.66;5047640;28;19925;-77
2022/08/16 06:12:55;;;;;;;;;;;;;;;19.03;66.58;100319.47;5041278;28;19925;-77
2022/08/16 06:15:20;;;;;;;;;;;;;;;19.04;66.33;100315.91;5022815;28;19928;-77
2022/08/16 06:17:46;;;;;;;;;;;;;;;19.08;66.33;100323.50;5040465;28;20136;-77
2022/08/16 06:20:19;;;;;;;;;;;;;;;19.05;66.52;100321.06;5047225;28;20318;-76
2022/08/16 06:22:45;;;;;;;;;;;;;;;19.08;66.27;100325.28;5039766;28;19920;-76
2022/08/16 06:25:12;;;;;;;;;;;;;;;19.10;65.98;100328.69;5040406;28;19966;-76
2022/08/16 06:27:38;;;;;;;;;;;;;;;19.10;66.52;100332.19;5038012;28;19925;-76
2022/08/16 06:30:05;;;;;;;;;;;;;;;19.12;66.95;100338.19;5037495;28;19932;-76
2022/08/16 06:32:30;;;;;;;;;;;;;;;19.16;66.34;100336.22;5034437;28;19947;-76
2022/08/16 06:34:56;;;;;;;;;;;;;;;19.13;66.69;100333.75;5018300;28;19925;-76
2022/08/16 06:37:21;;;;;;;;;;;;;;;19.12;67.13;100337.34;5038583;28;20301;-76
2022/08/16 06:39:46;;;;;;;;;;;;;;;19.17;66.44;100336.09;5036865;28;19982;-76
2022/08/16 06:42:12;;;;;;;;;;;;;;;19.19;66.39;100336.00;5036650;28;19920;-76
2022/08/16 06:44:37;;;;;;;;;;;;;;;19.20;65.87;100333.25;5039315;28;19928;-76
2022/08/16 06:47:02;;;;;;;;;;;;;;;19.21;65.80;100334.97;5038721;28;20020;-76
2022/08/16 06:49:28;;;;;;;;;;;;;;;19.24;65.47;100345.31;5039508;28;19932;-76
2022/08/16 06:51:53;;;;;;;;;;;;;;;19.26;65.25;100342.56;5042667;28;20349;-76
2022/08/16 06:54:18;;;;;;;;;;;;;;;19.28;65.60;100331.94;5043036;28;20024;-76
2022/08/16 06:56:43;;;;;;;;;;;;;;;19.27;65.66;100341.63;5021786;28;20405;-76
2022/08/16 06:59:09;;;;;;;;;;;;;;;19.26;66.08;100337.28;5035822;28;19921;-76
2022/08/16 07:01:35;;;;;;;;;;;;;;;19.32;65.71;100344.00;5043904;28;20369;-76
2022/08/16 07:04:00;;;;;;;;;;;;;;;19.32;65.55;100346.63;5046611;28;19924;-76
2022/08/16 07:06:25;;;;;;;;;;;;;;;19.29;65.40;100347.66;5038771;28;20409;-76
2022/08/16 07:08:51;;;;;;;;;;;;;;;19.31;65.09;100355.50;5039593;28;19932;-76
2022/08/16 07:11:16;;;;;;;;;;;;;;;19.32;65.67;100357.16;5025125;28;19929;-76
2022/08/16 07:13:42;;;;;;;;;;;;;;;19.40;64.78;100360.19;5039863;28;19921;-76
2022/08/16 07:16:13;;;;;;;;;;;;;;;19.44;64.48;100361.66;5044130;28;19925;-76
2022/08/16 07:18:38;;;;;;;;;;;;;;;19.40;64.54;100363.63;5035523;28;20001;-76
2022/08/16 07:21:04;;;;;;;;;;;;;;;19.46;64.11;100371.13;5040123;28;19979;-76
2022/08/16 07:23:29;;;;;;;;;;;;;;;19.43;65.11;100373.16;5019212;28;19964;-76
2022/08/16 07:25:55;;;;;;;;;;;;;;;19.46;64.27;100370.31;5041216;28;19925;-76
2022/08/16 07:28:20;;;;;;;;;;;;;;;19.47;64.29;100367.56;5040298;28;20265;-76
2022/08/16 07:30:46;;;;;;;;;;;;;;;19.49;64.40;100370.13;5046199;28;19924;-76
2022/08/16 07:33:13;;;;;;;;;;;;;;;19.50;64.41;100372.66;5049983;28;20293;-76
2022/08/16 07:35:39;;;;;;;;;;;;;;;19.52;64.31;100376.00;5041879;28;19928;-76
2022/08/16 07:38:06;;;;;;;;;;;;;;;19.51;64.40;100382.25;5039379;28;20331;-76
2022/08/16 07:40:32;;;;;;;;;;;;;;;19.55;63.61;100381.09;5038417;28;19921;-76
2022/08/16 07:42:57;;;;;;;;;;;;;;;19.58;63.67;100383.53;5046038;28;19928;-76
2022/08/16 07:45:23;;;;;;;;;;;;;;;19.58;63.85;100383.53;5026025;28;19917;-76
2022/08/16 07:47:48;;;;;;;;;;;;;;;19.60;63.50;100379.03;5044070;28;19921;-76
2022/08/16 07:50:15;;;;;;;;;;;;;;;19.65;63.45;100379.56;5027992;28;19929;-76
2022/08/16 07:52:41;;;;;;;;;;;;;;;19.64;63.54;100377.88;5038546;28;19982;-76
2022/08/16 07:55:07;;;;;;;;;;;;;;;19.63;63.63;100380.63;5045982;28;19964;-76
2022/08/16 07:57:32;;;;;;;;;;;;;;;19.65;63.43;100365.53;5039997;28;19929;-76
2022/08/16 07:59:59;;;;;;;;;;;;;;;19.65;63.58;100369.03;5052798;28;19920;-76
2022/08/16 08:02:24;;;;;;;;;;;;;;;19.64;63.74;100377.88;5039831;28;20521;-76
2022/08/16 08:04:50;;;;;;;;;;;;;;;19.64;63.73;100367.31;5032077;28;19921;-76
2022/08/16 08:07:15;;;;;;;;;;;;;;;19.69;63.27;100373.16;5045017;28;19974;-77
2022/08/16 08:09:41;;;;;;;;;;;;;;;19.72;63.27;100375.59;5045437;28;20451;-76
2022/08/16 08:12:07;;;;;;;;;;;;;;;19.70;63.19;100369.56;5041268;28;20020;-76
2022/08/16 08:14:33;;;;;;;;;;;;;;;19.74;63.52;100373.69;5042621;28;20008;-76
2022/08/16 08:16:58;;;;;;;;;;;;;;;19.76;63.01;100374.44;5041639;28;19978;-76
2022/08/16 08:19:25;;;;;;;;;;;;;;;19.74;63.29;100378.13;5039087;28;19925;-76
2022/08/16 08:21:53;;;;;;;;;;;;;;;19.72;63.46;100383.50;5046724;28;19951;-76
2022/08/16 08:24:18;;;;;;;;;;;;;;;19.78;63.29;100387.53;5042866;28;20393;-76
2022/08/16 08:26:44;;;;;;;;;;;;;;;19.85;63.41;100382.72;5036760;28;19967;-76
2022/08/16 08:29:09;;;;;;;;;;;;;;;19.86;63.18;100393.13;5036749;28;19924;-76
2022/08/16 08:31:35;;;;;;;;;;;;;;;19.85;63.07;100391.44;5037447;28;19944;-76
2022/08/16 08:34:01;;;;;;;;;;;;;;;19.81;63.16;100397.88;5038685;28;19948;-76
2022/08/16 08:36:28;;;;;;;;;;;;;;;19.79;62.92;100399.75;5051201;28;19917;-76
2022/08/16 08:38:54;;;;;;;;;;;;;;;19.79;62.93;100397.97;5041173;28;20007;-77
2022/08/16 08:41:19;;;;;;;;;;;;;;;19.82;63.25;100398.72;5040850;28;20000;-77
2022/08/16 08:43:45;;;;;;;;;;;;;;;19.82;63.16;100404.00;5041819;28;19925;-77
2022/08/16 08:46:10;;;;;;;;;;;;;;;19.82;62.85;100404.81;5042436;28;20015;-77
2022/08/16 08:48:36;;;;;;;;;;;;;;;19.82;62.94;100406.63;5044855;28;19920;-77
2022/08/16 08:51:06;;;;;;;;;;;;;;;19.80;63.18;100404.09;5038249;28;19928;-77
2022/08/16 08:53:32;;;;;;;;;;;;;;;19.85;63.12;100416.97;5038371;28;19931;-76
2022/08/16 08:55:58;;;;;;;;;;;;;;;19.82;63.24;100410.09;5042135;28;19920;-76
2022/08/16 08:58:23;;;;;;;;;;;;;;;19.82;63.37;100409.28;5039394;28;19936;-77
2022/08/16 09:00:49;;;;;;;;;;;;;;;19.90;63.03;100402.56;5023860;28;19963;-77
2022/08/16 09:03:14;;;;;;;;;;;;;;;19.90;62.97;100399.06;5044100;28;19920;-76
2022/08/16 09:05:40;;;;;;;;;;;;;;;19.89;62.61;100402.63;5034694;28;20293;-77
2022/08/16 09:08:06;;;;;;;;;;;;;;;19.90;62.76;100406.97;5039031;28;20004;-76
2022/08/16 09:10:31;;;;;;;;;;;;;;;19.87;62.76;100413.28;5038719;28;19932;-77
2022/08/16 09:12:59;;;;;;;;;;;;;;;19.86;62.63;100416.88;5039949;28;20335;-77
2022/08/16 09:15:25;;;;;;;;;;;;;;;19.88;62.49;100414.16;5038821;28;19917;-77
2022/08/16 09:17:55;;;;;;;;;;;;;;;19.90;62.48;100414.88;5038585;28;19932;-77
2022/08/16 09:20:24;;;;;;;;;;;;;;;19.91;62.44;100412.13;5042219;28;19921;-77
2022/08/16 09:22:50;;;;;;;;;;;;;;;19.87;62.91;100417.72;5025690;28;19928;-76
2022/08/16 09:25:16;;;;;;;;;;;;;;;19.96;62.58;100419.75;5034987;28;19951;-76
2022/08/16 09:27:41;;;;;;;;;;;;;;;19.87;63.95;100428.25;5036378;28;19925;-76
2022/08/16 09:30:08;;;;;;;;;;;;;;;19.98;61.89;100412.56;5044968;28;19920;-76
2022/08/16 09:32:33;;;;;;;;;;;;;;;20.05;61.54;100416.53;5045157;28;19960;-76
2022/08/16 09:35:00;;;;;;;;;;;;;;;20.11;61.55;100413.50;5028844;28;19960;-76
2022/08/16 09:37:26;;;;;;;;;;;;;;;20.04;61.90;100420.09;5038114;28;20305;-76
2022/08/16 09:39:51;;;;;;;;;;;;;;;20.02;61.62;100412.28;5029374;28;20489;-76
2022/08/16 09:42:17;;;;;;;;;;;;;;;20.08;61.62;100413.72;5039235;28;19935;-76
2022/08/16 09:44:42;;;;;;;;;;;;;;;20.13;61.50;100406.34;5043257;28;19956;-76
2022/08/16 09:47:08;;;;;;;;;;;;;;;20.04;61.74;100407.75;5042314;28;19923;-76
2022/08/16 09:49:34;;;;;;;;;;;;;;;19.98;63.06;100416.06;5040586;28;19921;-76
2022/08/16 09:51:59;;;;;;;;;;;;;;;20.08;61.93;100416.34;5036460;28;19951;-76
2022/08/16 09:54:26;;;;;;;;;;;;;;;19.97;64.04;100409.09;5034221;28;20333;-76
2022/08/16 09:56:51;;;;;;;;;;;;;;;19.88;63.61;100419.41;5043412;28;19921;-77
2022/08/16 09:59:16;;;;;;;;;;;;;;;19.88;64.02;100419.41;5030490;28;19920;-77
2022/08/16 10:01:43;;;;;;;;;;;;;;;20.19;61.60;100408.56;5032131;28;20443;-77
2022/08/16 10:04:09;;;;;;;;;;;;;;;20.12;61.64;100410.75;5039702;28;19933;-77
2022/08/16 10:06:35;;;;;;;;;;;;;;;20.03;62.02;100411.34;5042177;28;19920;-77
2022/08/16 10:09:03;;;;;;;;;;;;;;;20.07;62.39;100409.34;5037275;28;19925;-77
2022/08/16 10:14:13;;;;;;;;;;;;;;;20.22;60.36;100395.19;5022977;28;19932;-77
2022/08/16 10:16:38;;;;;;;;;;;;;;;20.05;62.61;100401.56;5037055;28;19917;-77
2022/08/16 10:19:03;;;;;;;;;;;;;;;20.02;62.93;100399.13;5043254;28;19927;-77
2022/08/16 10:21:29;;;;;;;;;;;;;;;20.07;62.32;100394.38;5025749;28;19971;-77
2022/08/16 10:23:54;;;;;;;;;;;;;;;20.04;63.16;100402.47;5046743;28;19966;-77
2022/08/16 10:26:23;;;;;;;;;;;;;;;20.19;61.38;100405.94;5033702;28;19917;-77
2022/08/16 10:28:48;;;;;;;;;;;;;;;20.12;62.27;100405.47;5038188;28;19921;-77
2022/08/16 10:31:14;;;;;;;;;;;;;;;19.99;63.51;100401.94;5034208;28;19929;-77
2022/08/16 10:33:39;;;;;;;;;;;;;;;20.10;62.88;100401.25;5042353;28;20275;-77
2022/08/16 10:36:06;;;;;;;;;;;;;;;20.18;61.03;100410.34;5022688;28;19944;-77
2022/08/16 10:38:32;;;;;;;;;;;;;;;20.35;59.59;100417.16;5045091;28;19920;-77
2022/08/16 10:41:00;;;;;;;;;;;;;;;20.27;59.90;100406.25;5037880;28;20209;-77
2022/08/16 10:43:26;;;;;;;;;;;;;;;20.44;59.40;100410.41;5037382;28;19929;-77
2022/08/16 10:45:51;;;;;;;;;;;;;;;20.20;62.49;100405.81;5031669;28;19974;-77
2022/08/16 10:48:17;;;;;;;;;;;;;;;20.17;61.85;100408.66;5030732;28;20352;-77
2022/08/16 10:50:43;;;;;;;;;;;;;;;20.02;62.86;100406.16;5041382;28;19929;-77
2022/08/16 10:53:08;;;;;;;;;;;;;;;20.02;63.19;100412.28;5036851;28;20377;-77
2022/08/16 10:55:38;;;;;;;;;;;;;;;20.02;63.29;100412.28;5026068;28;19933;-77
2022/08/16 10:58:04;;;;;;;;;;;;;;;20.11;61.82;100409.09;5037719;28;19964;-76
2022/08/16 11:00:31;;;;;;;;;;;;;;;20.20;61.51;100405.81;5040680;28;19917;-77
2022/08/16 11:02:57;;;;;;;;;;;;;;;20.19;60.58;100405.94;5035965;28;20007;-76
2022/08/16 11:05:22;;;;;;;;;;;;;;;20.40;58.10;100407.13;5040520;28;20098;-76
2022/08/16 11:07:48;;;;;;;;;;;;;;;20.31;58.63;100399.84;5045194;28;19921;-77
2022/08/16 11:10:16;;;;;;;;;;;;;;;20.38;57.94;100406.41;5038611;28;20581;-77
2022/08/16 11:12:42;;;;;;;;;;;;;;;20.37;58.06;100401.22;5042910;28;20381;-77
2022/08/16 11:15:08;;;;;;;;;;;;;;;20.43;57.64;100406.09;5041239;28;19931;-76
2022/08/16 11:17:33;;;;;;;;;;;;;;;20.20;62.02;100408.44;5035028;28;21514;-77
2022/08/16 11:19:59;;;;;;;;;;;;;;;20.11;62.42;100403.81;5039466;28;19928;-77
2022/08/16 11:22:25;;;;;;;;;;;;;;;20.19;59.96;100406.78;5042726;28;20396;-77
2022/08/16 11:24:50;;;;;;;;;;;;;;;20.57;56.58;100403.34;5041268;28;19983;-77
2022/08/16 11:27:18;;;;;;;;;;;;;;;20.78;55.33;100405.38;5038304;28;19924;-77
2022/08/16 11:29:43;;;;;;;;;;;;;;;20.80;54.82;100407.88;5040487;28;19929;-77
2022/08/16 11:32:08;;;;;;;;;;;;;;;20.47;58.94;100408.41;5042681;28;20387;-77
2022/08/16 11:34:34;;;;;;;;;;;;;;;20.50;57.37;100412.66;5044049;28;19925;-77
2022/08/16 11:36:59;;;;;;;;;;;;;;;20.34;59.38;100415.47;5037699;28;19998;-77
2022/08/16 11:39:25;;;;;;;;;;;;;;;20.40;58.52;100411.56;5039895;28;19921;-77
2022/08/16 11:41:50;;;;;;;;;;;;;;;20.29;60.71;100407.84;5047366;28;19968;-77
2022/08/16 11:44:16;;;;;;;;;;;;;;;20.18;62.67;100413.00;5028511;28;19998;-77
2022/08/16 11:46:41;;;;;;;;;;;;;;;20.40;58.68;100403.66;5043795;28;19921;-77
2022/08/16 11:49:06;;;;;;;;;;;;;;;20.16;62.21;100408.78;5040762;28;19932;-77
2022/08/16 11:51:32;;;;;;;;;;;;;;;20.15;59.74;100404.44;5049618;28;19920;-77
2022/08/16 11:53:57;;;;;;;;;;;;;;;20.08;62.31;100400.53;5043486;28;19920;-77
2022/08/16 11:56:23;;;;;;;;;;;;;;;20.46;56.54;100395.31;5039123;28;19929;-77
2022/08/16 11:58:48;;;;;;;;;;;;;;;20.19;62.31;100398.88;5040334;28;20286;-77
2022/08/16 12:01:14;;;;;;;;;;;;;;;20.12;62.35;100392.28;5044310;28;20603;-77
2022/08/16 12:03:40;;;;;;;;;;;;;;;20.64;54.32;100402.00;5042071;28;20090;-77
2022/08/16 12:06:08;;;;;;;;;;;;;;;20.45;56.45;100404.19;5041949;28;21345;-77
2022/08/16 12:08:33;;;;;;;;;;;;;;;20.25;61.79;100403.75;5038802;28;19967;-77
2022/08/16 12:10:59;;;;;;;;;;;;;;;20.29;59.25;100399.94;5045780;28;19925;-77
2022/08/16 12:13:25;;;;;;;;;;;;;;;20.34;59.66;100402.28;5034074;28;19987;-77
2022/08/16 12:15:50;;;;;;;;;;;;;;;20.16;62.18;100401.72;5048134;28;19940;-77
2022/08/16 12:18:16;;;;;;;;;;;;;;;20.17;62.13;100406.00;5027669;28;19929;-76
2022/08/16 12:20:42;;;;;;;;;;;;;;;20.13;62.28;100403.69;5041082;28;19948;-76
2022/08/16 12:23:08;;;;;;;;;;;;;;;20.20;61.79;100400.53;5040240;28;20373;-76
2022/08/16 12:25:34;;;;;;;;;;;;;;;20.22;61.88;100405.72;5040616;28;19971;-77
2022/08/16 12:28:00;;;;;;;;;;;;;;;20.19;63.04;100404.16;5040114;28;20369;-77
2022/08/16 12:30:30;;;;;;;;;;;;;;;20.17;62.35;100397.28;5040015;28;20431;-77